KMWT

Mount Ida Airport

Mount Ida, Arkansas, USA
METAR KMWT 151553Z AUTO 30003KT 10SM OVC012 08/05 A3001 RMK AO2 SLP166 T00780050
Observed Flight Rules
Dec-15 @ 15:53 UTC (42 minutes ago) Marginal Visual Flight Rules
Wind Visibility Clouds
300° at 3 knots 10 miles
  • Overcast at 1,200' AGL
Temperatures Readings
Current 8°C / 46°F
Dewpoint 5°C / 41°F
Humidity 82%
Altimeter 30.01" Hg
Pressure 1016.6 hPa
Elevation 214
METAR KMWT 151553Z AUTO 30003KT 10SM OVC012 08/05 A3001 RMK AO2 SLP166 T00780050
Observed Flight Rules
Dec-15 @ 15:53 UTC
(42 minutes ago)
MVFR
Wind Visibility
300° at 3 knots 10 miles
Clouds
  • Overcast at 1,200' AGL
Temperature Dewpoint
8°C / 46°F 5°C / 41°F
Humidity Altimeter Pressure
82% 30.01" Hg 1016.6 hPa